Time;durP1;ratioP1;P1;durP2;ratioP2;P2;SDS_P1;SDS_P2;PMS_P1;PMS_P2;Temp;Humidity;BMP_temperature;BMP_pressure;BME280_temperature;BME280_humidity;BME280_pressure;Samples;Min_cycle;Max_cycle;Signal;HPM_P1;HPM_P2
2024/01/14 00:02:20;;;;;;;18.17;11.30;;;-3.30;80.70;;;;;;6277342;28;20196;-64
2024/01/14 00:05:20;;;;;;;30.97;14.27;;;-3.40;80.50;;;;;;6279335;28;20193;-64
2024/01/14 00:08:21;;;;;;;18.97;11.27;;;-3.50;80.90;;;;;;6261517;28;20189;-64
2024/01/14 00:11:22;;;;;;;17.17;9.90;;;-3.40;81.00;;;;;;6272599;28;20186;-64
2024/01/14 00:14:22;;;;;;;15.03;9.93;;;-3.50;80.70;;;;;;6259985;28;20219;-64
2024/01/14 00:17:23;;;;;;;14.57;10.17;;;-3.50;80.70;;;;;;6288350;28;20191;-64
2024/01/14 00:20:24;;;;;;;14.07;10.03;;;-3.50;81.20;;;;;;6285996;28;20233;-64
2024/01/14 00:23:24;;;;;;;16.30;9.80;;;-3.40;81.40;;;;;;6273433;28;20196;-64
2024/01/14 00:26:27;;;;;;;15.67;10.13;;;-3.40;81.30;;;;;;6275355;28;20199;-64
2024/01/14 00:29:28;;;;;;;13.57;9.43;;;-3.30;81.00;;;;;;6273267;28;20222;-64
2024/01/14 00:32:29;;;;;;;13.67;9.50;;;-3.30;80.70;;;;;;6262608;28;20197;-64
2024/01/14 00:35:30;;;;;;;16.17;9.87;;;-3.20;81.00;;;;;;6262906;28;20214;-64
2024/01/14 00:38:30;;;;;;;13.33;8.77;;;-3.20;80.50;;;;;;6262112;28;20256;-64
2024/01/14 00:41:31;;;;;;;12.87;8.40;;;-3.30;80.40;;;;;;6291234;28;20193;-64
2024/01/14 00:44:32;;;;;;;12.37;7.80;;;-3.40;81.00;;;;;;6270440;28;20199;-64
2024/01/14 00:47:34;;;;;;;13.87;8.57;;;-3.30;80.50;;;;;;6267740;28;20191;-64
2024/01/14 00:50:34;;;;;;;14.40;9.03;;;-3.20;80.60;;;;;;6279115;28;20314;-64
2024/01/14 00:53:35;;;;;;;10.50;7.43;;;-3.20;80.80;;;;;;6281739;28;20245;-64
2024/01/14 00:56:35;;;;;;;11.90;7.97;;;-3.30;80.40;;;;;;6274816;28;20204;-64
2024/01/14 00:59:36;;;;;;;11.60;7.23;;;-3.30;80.50;;;;;;6272048;28;20232;-64
2024/01/14 01:02:37;;;;;;;10.90;7.13;;;-3.30;79.70;;;;;;6252340;28;20190;-64
2024/01/14 01:05:37;;;;;;;11.47;7.17;;;-3.40;79.80;;;;;;6283570;28;20198;-64
2024/01/14 01:08:38;;;;;;;10.97;7.30;;;-3.40;79.80;;;;;;6263363;28;20261;-64
2024/01/14 01:11:39;;;;;;;10.23;7.50;;;-3.40;80.00;;;;;;6281497;28;20244;-64
2024/01/14 01:14:40;;;;;;;15.13;8.47;;;-3.40;80.60;;;;;;6283888;28;20226;-64
2024/01/14 01:17:41;;;;;;;13.17;7.80;;;-3.50;80.60;;;;;;6286006;28;20188;-64
2024/01/14 01:20:42;;;;;;;11.33;8.10;;;-3.50;80.70;;;;;;6268208;28;20247;-64
2024/01/14 01:23:42;;;;;;;13.63;9.03;;;-3.50;80.70;;;;;;6260361;28;20251;-64
2024/01/14 01:26:43;;;;;;;12.20;8.63;;;-3.50;80.50;;;;;;6264215;28;20220;-64
2024/01/14 01:29:44;;;;;;;14.07;8.53;;;-3.40;80.70;;;;;;6272919;28;20200;-64
2024/01/14 01:32:45;;;;;;;17.10;8.97;;;-3.40;80.60;;;;;;6276333;28;20324;-64
2024/01/14 01:35:45;;;;;;;12.50;8.23;;;-3.40;80.10;;;;;;6278705;28;20600;-64
2024/01/14 01:38:46;;;;;;;13.10;8.97;;;-3.40;80.70;;;;;;6283818;28;20266;-64
2024/01/14 01:41:47;;;;;;;15.47;9.53;;;-3.40;80.90;;;;;;6293524;28;20186;-64
2024/01/14 01:44:48;;;;;;;20.93;11.87;;;-3.40;80.80;;;;;;6274124;28;20194;-64
2024/01/14 01:47:49;;;;;;;16.77;11.27;;;-3.40;81.20;;;;;;6271469;28;20189;-64
2024/01/14 01:50:54;;;;;;;19.17;10.90;;;-3.40;81.30;;;;;;6265481;28;20197;-63
2024/01/14 01:53:55;;;;;;;19.77;13.10;;;-3.40;80.90;;;;;;6284230;28;20206;-63
2024/01/14 01:56:57;;;;;;;21.50;12.73;;;-3.40;81.40;;;;;;6272787;28;20192;-63
2024/01/14 01:59:58;;;;;;;17.43;11.07;;;-3.30;81.40;;;;;;6293545;28;20222;-63
2024/01/14 02:02:59;;;;;;;16.83;10.53;;;-3.30;80.70;;;;;;6246958;28;20183;-63
2024/01/14 02:06:01;;;;;;;20.30;12.10;;;-3.40;81.10;;;;;;6271807;28;20191;-63
2024/01/14 02:09:01;;;;;;;17.00;10.73;;;-3.30;80.60;;;;;;6283865;28;20221;-63
2024/01/14 02:12:02;;;;;;;19.53;12.30;;;-3.40;80.40;;;;;;6260528;28;20213;-64
2024/01/14 02:15:03;;;;;;;24.43;11.50;;;-3.40;80.80;;;;;;6269303;28;20215;-64
2024/01/14 02:18:04;;;;;;;17.00;10.17;;;-3.40;80.70;;;;;;6273551;28;20245;-64
2024/01/14 02:21:07;;;;;;;20.73;11.97;;;-3.50;81.00;;;;;;6280231;28;20200;-64
2024/01/14 02:24:13;;;;;;;18.93;12.27;;;-3.50;81.30;;;;;;6292004;28;20198;-63
2024/01/14 02:27:14;;;;;;;20.40;12.43;;;-3.50;81.10;;;;;;6283407;28;20192;-63
2024/01/14 02:30:15;;;;;;;19.47;11.70;;;-3.50;81.10;;;;;;6264607;28;20194;-63
2024/01/14 02:33:16;;;;;;;18.97;12.70;;;-3.50;81.10;;;;;;6270994;28;20571;-63
2024/01/14 02:36:17;;;;;;;23.20;13.33;;;-3.60;81.00;;;;;;6264520;28;20191;-63
2024/01/14 02:39:19;;;;;;;21.20;13.13;;;-3.60;81.60;;;;;;6257634;28;20182;-63
2024/01/14 02:42:19;;;;;;;18.57;12.10;;;-3.50;81.50;;;;;;6262985;28;20187;-63
2024/01/14 02:45:20;;;;;;;18.37;12.80;;;-3.60;81.20;;;;;;6260323;28;20191;-63
2024/01/14 02:48:21;;;;;;;21.23;12.77;;;-3.60;81.00;;;;;;6264498;28;20198;-63
2024/01/14 02:51:22;;;;;;;19.40;13.47;;;;;;;;;;6264454;28;20221;-63
2024/01/14 02:54:23;;;;;;;19.83;13.10;;;;;;;;;;6277146;28;20243;-63
2024/01/14 02:57:24;;;;;;;19.67;12.77;;;-3.60;81.20;;;;;;6268112;28;20240;-63
2024/01/14 03:00:25;;;;;;;20.00;12.80;;;-3.80;81.90;;;;;;6238394;28;20325;-63
2024/01/14 03:03:26;;;;;;;24.27;14.23;;;-3.80;81.90;;;;;;6259797;28;20196;-64
2024/01/14 03:06:27;;;;;;;22.30;13.43;;;-3.80;81.50;;;;;;6262480;28;20195;-64
2024/01/14 03:09:27;;;;;;;23.27;14.63;;;-3.90;82.00;;;;;;6255307;28;20219;-64
2024/01/14 03:12:28;;;;;;;19.33;12.87;;;-3.90;81.90;;;;;;6239000;28;20192;-63
2024/01/14 03:15:29;;;;;;;21.33;13.97;;;-4.00;81.40;;;;;;6252345;28;20216;-63
2024/01/14 03:18:30;;;;;;;19.13;12.47;;;-4.00;81.80;;;;;;6253136;28;20188;-63
2024/01/14 03:21:31;;;;;;;23.33;14.20;;;-4.00;81.30;;;;;;6233266;28;20187;-63
2024/01/14 03:24:31;;;;;;;23.67;14.33;;;-4.00;81.70;;;;;;6246441;28;20191;-63
2024/01/14 03:27:32;;;;;;;22.37;14.60;;;-4.00;82.00;;;;;;6238558;28;20246;-63
2024/01/14 03:30:32;;;;;;;22.87;15.20;;;-4.00;82.00;;;;;;6245280;28;20200;-63
2024/01/14 03:33:34;;;;;;;29.80;16.13;;;-3.90;82.00;;;;;;6254192;28;20214;-63
2024/01/14 03:36:34;;;;;;;26.33;16.17;;;-4.00;81.70;;;;;;6260394;28;20190;-63
2024/01/14 03:39:35;;;;;;;25.93;15.37;;;-4.00;81.60;;;;;;6256273;28;20189;-63
2024/01/14 03:42:36;;;;;;;24.97;15.30;;;-4.00;82.00;;;;;;6269659;28;20196;-63
2024/01/14 03:45:37;;;;;;;24.83;15.77;;;-4.00;82.20;;;;;;6253827;28;20206;-63
2024/01/14 03:48:38;;;;;;;26.23;19.77;;;-4.00;81.70;;;;;;6255483;28;20828;-63
2024/01/14 03:51:38;;;;;;;30.57;17.27;;;-4.00;81.40;;;;;;6254072;28;20204;-63
2024/01/14 03:54:39;;;;;;;28.80;16.93;;;-4.00;81.50;;;;;;6264071;28;20244;-63
2024/01/14 03:57:40;;;;;;;27.90;16.77;;;-4.10;82.20;;;;;;6265895;28;20192;-63
2024/01/14 04:00:40;;;;;;;23.37;16.30;;;-4.00;81.50;;;;;;6265100;28;20191;-63
2024/01/14 04:03:41;;;;;;;24.50;15.93;;;-4.10;81.60;;;;;;6289948;28;20229;-63
2024/01/14 04:06:43;;;;;;;29.87;16.13;;;-4.10;81.70;;;;;;6284210;28;20194;-63
2024/01/14 04:09:45;;;;;;;25.73;15.63;;;-4.10;81.70;;;;;;6308714;28;20214;-63
2024/01/14 04:12:45;;;;;;;27.00;16.30;;;-4.10;81.50;;;;;;6280019;28;20195;-63
2024/01/14 04:15:46;;;;;;;25.00;15.97;;;-4.10;81.40;;;;;;6272259;28;20218;-63
2024/01/14 04:18:47;;;;;;;25.50;16.10;;;-4.20;81.30;;;;;;6266180;28;20203;-63
2024/01/14 04:21:48;;;;;;;29.17;17.80;;;-4.20;81.50;;;;;;6275680;28;20705;-63
2024/01/14 04:24:49;;;;;;;26.47;16.60;;;-4.20;82.30;;;;;;6301967;28;20199;-63
2024/01/14 04:27:50;;;;;;;31.17;17.80;;;-4.20;82.00;;;;;;6280639;28;20209;-63
2024/01/14 04:30:52;;;;;;;23.57;16.10;;;-4.20;82.60;;;;;;6277247;28;20203;-63
2024/01/14 04:33:52;;;;;;;26.53;16.53;;;-4.20;81.80;;;;;;6269328;28;20214;-63
2024/01/14 04:36:53;;;;;;;25.30;16.33;;;-4.30;81.50;;;;;;6274721;28;20236;-63
2024/01/14 04:39:55;;;;;;;24.57;15.67;;;-4.30;81.60;;;;;;6274843;28;20221;-63
2024/01/14 04:42:55;;;;;;;24.97;16.27;;;-4.30;81.50;;;;;;6281134;28;20276;-63
2024/01/14 04:45:56;;;;;;;24.30;16.30;;;-4.30;81.70;;;;;;6269404;28;20251;-63
2024/01/14 04:48:57;;;;;;;29.33;17.63;;;-4.20;81.20;;;;;;6270775;28;20196;-63
2024/01/14 04:51:58;;;;;;;28.40;16.10;;;-4.20;81.80;;;;;;6267547;28;20195;-63
2024/01/14 04:54:58;;;;;;;29.60;19.10;;;-4.20;81.00;;;;;;6286863;28;20226;-63
2024/01/14 04:57:59;;;;;;;30.03;18.87;;;-4.20;81.40;;;;;;6270060;28;20230;-63
2024/01/14 05:01:00;;;;;;;28.80;18.47;;;-4.20;81.50;;;;;;6279377;28;20193;-63
2024/01/14 05:04:03;;;;;;;25.63;16.37;;;-4.40;81.80;;;;;;6290497;28;20186;-63
2024/01/14 05:07:03;;;;;;;31.40;17.93;;;-4.40;81.60;;;;;;6286819;28;20192;-63
2024/01/14 05:10:04;;;;;;;28.07;18.07;;;-4.40;81.60;;;;;;6288749;28;20225;-63
2024/01/14 05:13:05;;;;;;;30.77;17.70;;;-4.40;81.50;;;;;;6271660;28;20201;-63
2024/01/14 05:16:06;;;;;;;28.30;17.40;;;-4.30;81.50;;;;;;6269566;28;20186;-63
2024/01/14 05:19:06;;;;;;;29.33;18.03;;;-4.30;81.40;;;;;;6269606;28;20190;-63
2024/01/14 05:22:07;;;;;;;28.03;17.77;;;-4.30;81.20;;;;;;6275275;28;20202;-63
2024/01/14 05:25:08;;;;;;;25.93;17.17;;;-4.30;81.10;;;;;;6275604;28;20194;-63
2024/01/14 05:28:09;;;;;;;32.50;18.87;;;-4.30;81.60;;;;;;6280263;28;20197;-63
2024/01/14 05:31:10;;;;;;;29.57;18.60;;;-4.30;81.70;;;;;;6272758;28;20285;-63
2024/01/14 05:34:10;;;;;;;32.43;19.33;;;-4.20;81.80;;;;;;6274390;28;20210;-63
2024/01/14 05:37:12;;;;;;;28.20;17.53;;;-4.30;82.30;;;;;;6267454;28;20249;-63
2024/01/14 05:40:13;;;;;;;34.97;19.23;;;-4.20;81.20;;;;;;6307219;28;20181;-63
2024/01/14 05:43:13;;;;;;;29.97;18.27;;;-4.30;81.10;;;;;;6274456;28;20214;-63
2024/01/14 05:46:14;;;;;;;33.57;21.13;;;-4.30;81.40;;;;;;6268551;28;20237;-63
2024/01/14 05:49:15;;;;;;;32.27;19.67;;;-4.30;82.00;;;;;;6272254;28;20186;-63
2024/01/14 05:52:16;;;;;;;30.57;19.90;;;-4.10;83.00;;;;;;6264476;28;20201;-63
2024/01/14 05:55:17;;;;;;;32.13;20.30;;;-4.10;82.80;;;;;;6261279;28;20213;-64
2024/01/14 05:58:17;;;;;;;30.27;19.63;;;-4.00;83.10;;;;;;6265940;28;20329;-64
2024/01/14 06:01:18;;;;;;;33.40;20.63;;;-4.00;82.70;;;;;;6288992;28;20217;-64
2024/01/14 06:04:19;;;;;;;32.90;20.37;;;-4.00;82.30;;;;;;6276634;28;20195;-64
2024/01/14 06:07:20;;;;;;;34.83;19.93;;;-4.00;82.00;;;;;;6274848;28;20191;-63
2024/01/14 06:10:20;;;;;;;33.27;19.63;;;-4.00;81.70;;;;;;6272202;28;20233;-63
2024/01/14 06:13:21;;;;;;;29.93;18.93;;;-4.00;81.50;;;;;;6281984;28;20209;-64
2024/01/14 06:16:22;;;;;;;31.97;19.67;;;-4.00;81.00;;;;;;6288911;28;20198;-64
2024/01/14 06:19:22;;;;;;;33.20;20.17;;;-3.90;81.20;;;;;;6268806;28;20191;-64
2024/01/14 06:22:23;;;;;;;30.50;18.73;;;-3.90;81.90;;;;;;6284802;28;20279;-64
2024/01/14 06:25:24;;;;;;;29.00;18.50;;;-4.00;81.50;;;;;;6266919;28;20202;-63
2024/01/14 06:28:24;;;;;;;31.57;20.63;;;-4.00;81.50;;;;;;6255070;28;20186;-63
2024/01/14 06:31:25;;;;;;;29.10;17.87;;;-3.90;81.80;;;;;;6271378;28;20195;-63
2024/01/14 06:34:26;;;;;;;28.67;18.00;;;-3.80;81.70;;;;;;6299027;28;20220;-63
2024/01/14 06:37:26;;;;;;;30.40;18.60;;;-3.90;82.20;;;;;;6266928;28;20189;-63
2024/01/14 06:40:27;;;;;;;35.03;19.17;;;-3.80;81.90;;;;;;6291591;28;20284;-63
2024/01/14 06:43:28;;;;;;;29.63;19.23;;;-3.80;82.10;;;;;;6265041;28;20195;-63
2024/01/14 06:46:28;;;;;;;33.10;19.80;;;-3.70;81.90;;;;;;6265556;28;20250;-64
2024/01/14 06:49:29;;;;;;;33.80;19.83;;;-3.60;81.50;;;;;;6283953;28;20224;-62
2024/01/14 06:52:30;;;;;;;30.87;20.27;;;-3.60;81.50;;;;;;6279463;28;20202;-62
2024/01/14 06:55:30;;;;;;;29.53;20.33;;;-3.60;81.00;;;;;;6271398;28;20205;-63
2024/01/14 06:58:32;;;;;;;30.77;19.10;;;-3.60;81.80;;;;;;6264115;28;20233;-63
2024/01/14 07:01:33;;;;;;;30.00;19.67;;;-3.60;81.50;;;;;;6257891;28;20194;-64
2024/01/14 07:04:34;;;;;;;33.00;19.87;;;-3.50;81.60;;;;;;6253263;28;20198;-63
2024/01/14 07:07:34;;;;;;;30.77;19.13;;;-3.50;81.50;;;;;;6266019;28;20191;-63
2024/01/14 07:10:35;;;;;;;31.63;20.73;;;-3.50;81.40;;;;;;6256923;28;20196;-63
2024/01/14 07:13:36;;;;;;;31.00;19.70;;;-3.60;81.60;;;;;;6288583;28;20217;-63
2024/01/14 07:16:37;;;;;;;32.83;19.47;;;-3.50;82.00;;;;;;6272328;28;20190;-63
2024/01/14 07:19:37;;;;;;;30.57;20.03;;;-3.40;81.80;;;;;;6278657;28;20285;-63
2024/01/14 07:22:38;;;;;;;31.63;19.83;;;-3.40;82.00;;;;;;6294135;28;20214;-63
2024/01/14 07:25:39;;;;;;;31.90;19.33;;;-3.30;81.60;;;;;;6271611;28;20185;-63
2024/01/14 07:28:39;;;;;;;33.07;19.73;;;-3.30;80.90;;;;;;6262441;28;20205;-63
2024/01/14 07:31:40;;;;;;;30.87;19.27;;;-3.20;81.20;;;;;;6277388;28;20265;-64
2024/01/14 07:34:41;;;;;;;29.17;22.67;;;-3.20;80.70;;;;;;6288827;28;20765;-65
2024/01/14 07:37:41;;;;;;;26.43;19.00;;;-3.30;81.50;;;;;;6266324;28;20198;-64
2024/01/14 07:40:42;;;;;;;28.10;18.77;;;-3.20;81.10;;;;;;6271188;28;20286;-64
2024/01/14 07:43:43;;;;;;;33.47;19.47;;;-3.20;81.20;;;;;;6269813;28;20219;-64
2024/01/14 07:46:45;;;;;;;29.87;19.43;;;-3.20;81.80;;;;;;6268255;28;20277;-64
2024/01/14 07:49:48;;;;;;;28.73;18.73;;;-3.20;81.50;;;;;;6289452;28;20240;-64
2024/01/14 07:52:50;;;;;;;30.03;17.47;;;-3.10;80.70;;;;;;6275594;28;20262;-62
2024/01/14 07:55:50;;;;;;;27.20;15.97;;;-3.00;80.50;;;;;;6278907;28;20248;-63
2024/01/14 07:58:51;;;;;;;26.73;17.20;;;-3.00;80.50;;;;;;6283942;28;20238;-63
2024/01/14 08:01:52;;;;;;;28.98;21.17;;;-2.90;80.70;;;;;;6259464;28;20762;-63
2024/01/14 08:04:52;;;;;;;26.40;16.50;;;-2.80;81.40;;;;;;6268706;28;20196;-63
2024/01/14 08:07:53;;;;;;;23.13;15.50;;;-2.80;80.70;;;;;;6260971;28;20193;-63
2024/01/14 08:10:54;;;;;;;29.40;16.53;;;-2.80;80.40;;;;;;6264590;28;20222;-64
2024/01/14 08:13:55;;;;;;;25.57;15.00;;;-2.70;79.80;;;;;;6291303;28;20329;-63
2024/01/14 08:16:56;;;;;;;26.33;16.10;;;-2.70;80.60;;;;;;6265681;28;20231;-62
2024/01/14 08:19:57;;;;;;;25.03;15.83;;;-2.70;79.90;;;;;;6257352;28;20192;-63
2024/01/14 08:22:57;;;;;;;29.93;16.67;;;-2.60;79.80;;;;;;6260029;28;20187;-63
2024/01/14 08:26:01;;;;;;;25.10;16.23;;;-2.60;80.20;;;;;;6275527;28;20197;-63
2024/01/14 08:29:01;;;;;;;27.27;16.20;;;-2.50;80.30;;;;;;6267174;28;20196;-63
2024/01/14 08:32:02;;;;;;;30.13;16.60;;;-2.50;80.40;;;;;;6266285;28;20199;-63
2024/01/14 08:35:03;;;;;;;27.73;17.00;;;-2.40;80.20;;;;;;6276873;28;20222;-63
2024/01/14 08:38:04;;;;;;;30.60;17.57;;;-2.30;80.20;;;;;;6275354;28;20194;-63
2024/01/14 08:41:06;;;;;;;31.33;18.33;;;-2.30;80.00;;;;;;6267162;28;20220;-63
2024/01/14 08:44:10;;;;;;;26.47;17.37;;;-2.20;80.10;;;;;;6260449;28;20203;-63
2024/01/14 08:47:12;;;;;;;29.43;18.40;;;-2.20;79.70;;;;;;6270795;28;20196;-63
2024/01/14 08:50:13;;;;;;;24.10;16.63;;;-2.20;80.30;;;;;;6292463;28;20201;-63
2024/01/14 08:53:14;;;;;;;24.77;16.87;;;-2.20;79.00;;;;;;6273786;28;20199;-63
2024/01/14 08:56:15;;;;;;;23.83;17.07;;;-2.10;79.80;;;;;;6289496;28;20196;-63
2024/01/14 08:59:15;;;;;;;24.37;16.77;;;-2.10;79.40;;;;;;6248743;28;20274;-64
2024/01/14 09:02:16;;;;;;;28.70;18.17;;;-2.10;79.40;;;;;;6279076;28;20231;-62
2024/01/14 09:05:18;;;;;;;28.57;18.23;;;-2.20;80.30;;;;;;6265353;28;20221;-62
2024/01/14 09:08:19;;;;;;;30.93;16.60;;;-2.10;79.80;;;;;;6278248;28;20198;-63
2024/01/14 09:11:19;;;;;;;26.03;16.90;;;-2.10;79.50;;;;;;6262290;28;20196;-63
2024/01/14 09:14:20;;;;;;;27.13;17.07;;;-2.10;79.20;;;;;;6286580;28;20215;-63
2024/01/14 09:17:21;;;;;;;26.07;17.80;;;-2.10;79.60;;;;;;6271422;28;20181;-63
2024/01/14 09:20:22;;;;;;;31.13;19.37;;;-2.00;79.30;;;;;;6279979;28;20196;-63
2024/01/14 09:23:22;;;;;;;29.53;18.53;;;-2.10;80.20;;;;;;6272976;28;20281;-63
2024/01/14 09:26:23;;;;;;;32.90;20.73;;;-2.10;80.50;;;;;;6281906;28;20189;-63
2024/01/14 09:29:24;;;;;;;27.83;18.30;;;-2.10;80.70;;;;;;6258084;28;20191;-63
2024/01/14 09:32:25;;;;;;;33.03;20.10;;;-1.90;80.00;;;;;;6262128;28;20189;-63
2024/01/14 09:35:26;;;;;;;31.50;18.77;;;-1.90;80.00;;;;;;6260317;28;20219;-63
2024/01/14 09:38:26;;;;;;;34.77;18.70;;;-1.80;80.10;;;;;;6247064;28;20193;-62
2024/01/14 09:42:05;;;;;;;28.83;19.33;;;-1.80;80.60;;;;;;6258998;28;20222;-62
2024/01/14 09:45:06;;;;;;;36.90;22.10;;;-1.70;80.20;;;;;;6294783;28;20197;-62
2024/01/14 09:48:08;;;;;;;46.37;25.53;;;-1.70;81.00;;;;;;6262277;28;20194;-63
2024/01/14 09:51:10;;;;;;;45.67;26.73;;;-1.70;81.20;;;;;;6298860;28;20228;-63
2024/01/14 09:54:11;;;;;;;43.87;27.17;;;-1.60;82.20;;;;;;6282902;28;20219;-63
2024/01/14 09:57:16;;;;;;;40.47;25.37;;;-1.60;82.70;;;;;;6271012;28;20219;-63
2024/01/14 10:00:20;;;;;;;43.77;27.47;;;-1.50;82.60;;;;;;6281376;28;20259;-64
2024/01/14 10:03:21;;;;;;;47.23;28.23;;;-1.50;82.40;;;;;;6281755;28;20188;-63
2024/01/14 10:06:22;;;;;;;51.47;29.50;;;-1.40;82.60;;;;;;6258257;28;20224;-63
2024/01/14 10:09:24;;;;;;;52.13;30.03;;;;;;;;;;6258455;28;20194;-63
2024/01/14 10:12:26;;;;;;;47.23;27.47;;;;;;;;;;6279784;28;20192;-62
2024/01/14 10:15:27;;;;;;;50.10;28.33;;;;;;;;;;6291735;28;20220;-62
2024/01/14 10:18:28;;;;;;;42.20;26.40;;;;;;;;;;6273363;28;20192;-62
2024/01/14 10:21:31;;;;;;;47.93;28.07;;;-1.30;82.10;;;;;;6265777;28;20232;-61
2024/01/14 10:24:33;;;;;;;51.03;27.87;;;-1.10;81.20;;;;;;6268179;28;20276;-64
2024/01/14 10:27:34;;;;;;;47.33;28.30;;;;;;;;;;6267179;28;20250;-63
2024/01/14 10:30:35;;;;;;;48.47;30.60;;;;;;;;;;6271988;28;20191;-63
2024/01/14 10:33:36;;;;;;;47.77;28.73;;;-1.20;81.10;;;;;;6290491;28;20241;-63
2024/01/14 10:36:37;;;;;;;48.27;29.03;;;-1.40;81.90;;;;;;6274495;28;20315;-62
2024/01/14 10:39:38;;;;;;;50.50;29.70;;;-1.30;82.00;;;;;;6262576;28;20322;-62
2024/01/14 10:42:39;;;;;;;49.27;30.30;;;-1.30;82.00;;;;;;6294337;28;20192;-62
2024/01/14 10:45:40;;;;;;;48.97;30.87;;;-1.20;81.80;;;;;;6260991;28;20194;-64
2024/01/14 10:48:41;;;;;;;48.13;30.00;;;-1.30;81.90;;;;;;6261884;28;20202;-64
2024/01/14 10:51:46;;;;;;;45.90;28.67;;;-1.30;81.90;;;;;;6264879;28;20201;-64
2024/01/14 10:54:53;;;;;;;48.37;30.00;;;-1.10;81.60;;;;;;6288239;28;20220;-64
2024/01/14 10:57:56;;;;;;;48.23;28.40;;;-1.10;82.10;;;;;;6261746;28;20198;-63
2024/01/14 11:00:59;;;;;;;45.00;27.83;;;-1.10;81.20;;;;;;6288693;28;20196;-64
2024/01/14 11:04:04;;;;;;;43.77;27.90;;;-1.00;81.60;;;;;;6301115;28;20276;-64
2024/01/14 11:07:05;;;;;;;50.20;31.83;;;-1.00;81.20;;;;;;6276102;28;20199;-64
2024/01/14 11:10:10;;;;;;;51.10;30.30;;;-0.90;81.10;;;;;;6291465;28;20203;-64
2024/01/14 11:13:35;;;;;;;47.60;30.20;;;-0.90;80.60;;;;;;6288767;28;20250;-64
2024/01/14 11:16:45;;;;;;;47.27;29.53;;;-0.80;79.30;;;;;;6310533;28;20193;-64
2024/01/14 11:19:48;;;;;;;46.53;29.07;;;-0.80;80.40;;;;;;6298916;28;20183;-62
2024/01/14 11:22:50;;;;;;;49.53;30.00;;;-0.70;80.30;;;;;;6287543;28;20281;-63
2024/01/14 11:25:51;;;;;;;49.23;30.03;;;-0.70;80.00;;;;;;6282548;28;20223;-64
2024/01/14 11:28:54;;;;;;;47.90;29.80;;;-0.80;80.10;;;;;;6258231;28;20188;-63
2024/01/14 11:32:15;;;;;;;46.97;27.93;;;-0.70;79.60;;;;;;6300826;28;20211;-63
2024/01/14 11:35:37;;;;;;;50.47;30.63;;;-0.70;80.10;;;;;;6295639;28;20208;-63
2024/01/14 11:38:55;;;;;;;47.50;29.53;;;-0.70;80.40;;;;;;6282454;28;20190;-64
2024/01/14 11:41:55;;;;;;;52.77;32.27;;;-0.60;79.90;;;;;;6276660;28;20190;-64
2024/01/14 11:44:56;;;;;;;49.47;31.13;;;-0.70;79.30;;;;;;6267986;28;20192;-64
2024/01/14 11:47:57;;;;;;;51.07;31.43;;;-0.70;79.00;;;;;;6282838;28;20189;-65
2024/01/14 11:50:59;;;;;;;48.70;30.77;;;-0.70;79.80;;;;;;6276117;28;20184;-64
2024/01/14 11:54:04;;;;;;;53.57;32.83;;;-0.70;79.50;;;;;;6273957;28;20217;-64
2024/01/14 11:57:24;;;;;;;64.47;44.58;;;-0.90;80.40;;;;;;6282482;28;20878;-63
2024/01/14 12:00:26;;;;;;;52.20;33.83;;;-0.90;80.40;;;;;;6284190;28;20264;-62
2024/01/14 12:03:27;;;;;;;50.00;33.03;;;-1.00;80.30;;;;;;6267090;28;20189;-62
2024/01/14 12:06:48;;;;;;;49.73;31.53;;;-0.90;80.70;;;;;;6266584;28;20188;-62
2024/01/14 12:09:56;;;;;;;52.33;32.27;;;-0.90;80.90;;;;;;6272249;28;20213;-62
2024/01/14 12:12:56;;;;;;;49.27;29.40;;;-0.90;80.40;;;;;;6291438;28;20189;-62
2024/01/14 12:15:57;;;;;;;49.30;31.37;;;-0.90;80.60;;;;;;6289329;28;20227;-62
2024/01/14 12:18:58;;;;;;;49.83;30.30;;;-0.80;80.50;;;;;;6265598;28;20195;-62
2024/01/14 12:21:59;;;;;;;56.13;32.93;;;-0.70;80.50;;;;;;6285169;28;20181;-62
2024/01/14 12:25:01;;;;;;;52.33;31.47;;;-0.70;79.70;;;;;;6275154;28;20203;-63
2024/01/14 12:28:02;;;;;;;52.33;31.87;;;-0.70;79.80;;;;;;6301129;28;20213;-62
2024/01/14 12:31:04;;;;;;;55.03;33.10;;;-0.70;79.40;;;;;;6262524;28;20239;-62
2024/01/14 12:34:08;;;;;;;53.07;30.40;;;-0.70;79.30;;;;;;6282360;28;20209;-63
2024/01/14 12:37:08;;;;;;;49.60;30.07;;;-0.70;79.30;;;;;;6274970;28;20185;-62
2024/01/14 12:40:09;;;;;;;51.93;30.47;;;-0.60;79.20;;;;;;6271808;28;20279;-64
2024/01/14 12:43:12;;;;;;;52.37;32.03;;;-0.60;79.30;;;;;;6295292;28;20196;-63
2024/01/14 12:46:13;;;;;;;51.90;30.83;;;-0.50;79.00;;;;;;6300926;28;20281;-62
2024/01/14 12:49:13;;;;;;;49.47;29.23;;;-0.60;79.00;;;;;;6292772;28;20195;-63
2024/01/14 12:52:14;;;;;;;47.33;29.43;;;-0.50;78.70;;;;;;6274015;28;20311;-63
2024/01/14 12:55:21;;;;;;;53.00;31.33;;;-0.60;79.10;;;;;;6278151;28;20218;-63
2024/01/14 12:58:22;;;;;;;51.00;32.63;;;-0.70;79.40;;;;;;6298751;28;20256;-63
2024/01/14 13:01:23;;;;;;;52.47;31.00;;;-0.80;79.20;;;;;;6270038;28;20194;-63
2024/01/14 13:04:26;;;;;;;51.50;31.83;;;-0.70;79.50;;;;;;6291303;28;20282;-63
2024/01/14 13:07:26;;;;;;;51.10;32.37;;;-0.70;79.10;;;;;;6296759;28;20185;-63
2024/01/14 13:10:27;;;;;;;54.80;31.53;;;-0.80;79.10;;;;;;6285825;28;20219;-63
2024/01/14 13:13:28;;;;;;;51.67;31.37;;;-0.70;79.20;;;;;;6266094;28;20197;-63
2024/01/14 13:16:29;;;;;;;57.90;32.83;;;-0.70;79.50;;;;;;6269684;28;20219;-62
2024/01/14 13:19:30;;;;;;;55.90;31.90;;;-0.70;79.70;;;;;;6271043;28;20188;-63
2024/01/14 13:22:32;;;;;;;49.47;30.60;;;-0.70;78.70;;;;;;6284825;28;20226;-63
2024/01/14 13:25:33;;;;;;;49.77;31.07;;;-0.80;79.50;;;;;;6300555;28;20246;-63
2024/01/14 13:28:33;;;;;;;52.17;32.17;;;-0.70;78.90;;;;;;6263839;28;20216;-63
2024/01/14 13:31:37;;;;;;;56.03;32.80;;;-0.70;78.70;;;;;;6307354;28;20199;-63
2024/01/14 13:34:38;;;;;;;58.63;32.27;;;-0.70;78.80;;;;;;6287268;28;20281;-63
2024/01/14 13:37:38;;;;;;;50.67;30.40;;;-0.70;78.90;;;;;;6276578;28;20197;-62
2024/01/14 13:40:39;;;;;;;50.60;31.43;;;-1.00;79.30;;;;;;6280827;28;20248;-62
2024/01/14 13:43:40;;;;;;;52.73;31.97;;;-1.10;80.40;;;;;;6274186;28;20197;-62
2024/01/14 13:46:40;;;;;;;56.13;34.03;;;-1.00;80.30;;;;;;6307194;28;20275;-62
2024/01/14 13:49:41;;;;;;;56.93;33.17;;;-1.00;80.10;;;;;;6287693;28;20200;-63
2024/01/14 13:52:42;;;;;;;55.87;32.63;;;-1.00;80.20;;;;;;6289588;28;20201;-63
2024/01/14 13:55:43;;;;;;;54.27;33.13;;;-1.10;80.50;;;;;;6272945;28;20215;-63
2024/01/14 13:58:44;;;;;;;51.37;30.27;;;-1.10;80.70;;;;;;6273775;28;20335;-63
2024/01/14 14:01:44;;;;;;;57.57;32.70;;;-1.00;80.70;;;;;;6271532;28;20194;-63
2024/01/14 14:04:45;;;;;;;52.40;32.00;;;-0.90;80.10;;;;;;6281680;28;20201;-63
2024/01/14 14:07:46;;;;;;;49.73;32.20;;;-0.90;80.00;;;;;;6280617;28;20192;-62
2024/01/14 14:10:47;;;;;;;54.40;32.87;;;-0.90;80.40;;;;;;6267804;28;20196;-62
2024/01/14 14:13:47;;;;;;;54.17;32.07;;;-0.90;80.00;;;;;;6257201;28;20269;-63
2024/01/14 14:16:48;;;;;;;51.10;31.50;;;-0.90;80.20;;;;;;6279481;28;20249;-62
2024/01/14 14:19:52;;;;;;;52.07;30.70;;;-1.00;80.40;;;;;;6270719;28;20196;-62
2024/01/14 14:22:52;;;;;;;51.43;31.43;;;-1.00;80.60;;;;;;6278158;28;20189;-63
2024/01/14 14:25:53;;;;;;;59.47;34.57;;;-1.00;80.20;;;;;;6260877;28;20195;-62
2024/01/14 14:28:54;;;;;;;55.43;32.20;;;-1.00;80.50;;;;;;6269268;28;20193;-62
2024/01/14 14:31:54;;;;;;;54.70;33.43;;;-1.00;80.40;;;;;;6268385;28;20193;-62
2024/01/14 14:34:56;;;;;;;55.53;33.47;;;-1.00;80.10;;;;;;6256777;28;20217;-62
2024/01/14 14:37:57;;;;;;;54.77;33.67;;;-1.10;80.80;;;;;;6263672;28;20184;-62
2024/01/14 14:41:02;;;;;;;58.60;33.07;;;-1.10;81.10;;;;;;6272623;28;20188;-62
2024/01/14 14:44:04;;;;;;;56.83;33.93;;;-1.10;81.00;;;;;;6266311;28;21250;-62
2024/01/14 14:47:05;;;;;;;56.00;33.50;;;-1.00;81.10;;;;;;6280275;28;20192;-62
2024/01/14 14:50:06;;;;;;;55.70;34.10;;;-1.00;81.20;;;;;;6265263;28;20195;-62
2024/01/14 14:53:06;;;;;;;54.40;34.63;;;-1.00;80.80;;;;;;6264793;28;20280;-62
2024/01/14 14:56:07;;;;;;;54.87;31.60;;;-1.00;81.00;;;;;;6277692;28;20204;-62
2024/01/14 14:59:08;;;;;;;56.77;33.47;;;-1.00;81.00;;;;;;6284310;28;20285;-63
2024/01/14 15:02:09;;;;;;;59.77;34.60;;;-1.00;80.90;;;;;;6262660;28;20186;-62
2024/01/14 15:05:10;;;;;;;52.03;32.57;;;-1.00;81.00;;;;;;6251596;28;20355;-62
2024/01/14 15:08:11;;;;;;;56.83;33.40;;;-1.00;81.00;;;;;;6285112;28;20238;-62
2024/01/14 15:11:12;;;;;;;54.43;31.10;;;-1.00;81.00;;;;;;6277917;28;20286;-62
2024/01/14 15:14:13;;;;;;;56.40;34.93;;;-1.00;81.00;;;;;;6288466;28;20208;-62
2024/01/14 15:17:13;;;;;;;57.63;33.07;;;-1.00;81.40;;;;;;6282740;28;20187;-62
2024/01/14 15:20:14;;;;;;;60.07;33.97;;;-1.00;81.40;;;;;;6258902;28;20189;-62
2024/01/14 15:23:15;;;;;;;54.47;31.87;;;-1.00;81.30;;;;;;6286748;28;20181;-62
2024/01/14 15:26:16;;;;;;;58.80;34.30;;;-1.00;81.40;;;;;;6264201;28;20184;-62